SBOSBO PDX / KPDX
Speedbird OnlineSpeedbird Online PDX / KPDX

Portland International Airport
08:39 11.5°C

Location Portland, United States
Latitude: 45.58869934
Longitude: -122.5979996
Local Time 08:39 on 30 May 2024
UTC -7 hours (America/Los_Angeles)
Currency £1 equals USD 1.27
METAR KPDX 301453Z 35003KT 10SM FEW010 FEW100 12/06 A3041 RMK AO2 SLP297 T01170061 53006 $
TAF KPDX 301503Z 3015/3112 33010KT P6SM FEW250
Weather As Of 30 May 2024 08:39
Description Few clouds
Wind 7 km/h from South-West (230°)
Cloud Cover 20%
Precipitation Rain: none, Snow: none
Sunrise 05:25
Sunset 20:50
NOTAM 41 active NOTAM
Rotations During the last 90 days there were
69 flights from LHR
63 flights to LHR
Lounges United Club, Concourse E
Alaska Lounge, Main Terminal
Alaska Lounge, Main Terminal
Web Wikipedia
Codes IATA: PDX
ICAO: KPDX
Altitude 9 Meter / 31 Feet
Distance 7,908 KM / 4,914 Miles
from London.
Runways
RunwayLength (m)Surface
032134Asphalt
10L2438Asphalt
10R3353Asphalt
212134Asphalt
28L3353Asphalt
28R2438Asphalt
Radio
TypeDescriptionFrequency
ACP939 ARW COMD POST124.35
APPAPP118.1
APPAPP29.92
ATISATIS120.625
CLDCLNC DEL120.125
DEPDEP118.1
GNDGND121.9
OPSANG BASE OPS28.05
TWRTWR118.7
UNICUNICOM122.95
Live ATC



Support Speedbird Online

© 2017-2024 Speedbird Online